createdAt,value
2023-03-21T00:01:04.019Z,69.57
2023-03-21T00:03:35.683Z,69.92
2023-03-21T00:06:11.159Z,69.97
2023-03-21T00:08:42.815Z,69.77
2023-03-21T00:11:14.432Z,69.53
2023-03-21T00:13:46.220Z,69.76
2023-03-21T00:16:25.014Z,70.10
2023-03-21T00:19:06.512Z,70.30
2023-03-21T00:21:51.805Z,70.72
2023-03-21T00:24:27.162Z,71.03
2023-03-21T00:27:15.833Z,71.40
2023-03-21T00:29:51.734Z,71.41
2023-03-21T00:32:23.258Z,72.30
2023-03-21T00:35:16.471Z,71.58
2023-03-21T00:37:47.824Z,72.09
2023-03-21T00:40:28.045Z,71.75
2023-03-21T00:43:04.421Z,72.41
2023-03-21T00:45:37.406Z,71.68
2023-03-21T00:48:10.118Z,71.72
2023-03-21T00:50:47.781Z,72.21
2023-03-21T00:53:19.746Z,72.40
2023-03-21T00:55:51.414Z,72.27
2023-03-21T00:58:22.957Z,72.49
2023-03-21T01:00:54.785Z,71.56
2023-03-21T01:03:26.705Z,72.30
2023-03-21T01:06:07.557Z,72.38
2023-03-21T01:08:51.856Z,71.78
2023-03-21T01:11:28.512Z,71.43
2023-03-21T01:14:18.691Z,71.84
2023-03-21T01:16:53.693Z,71.89
2023-03-21T01:19:44.231Z,72.20
2023-03-21T01:22:21.286Z,71.71
2023-03-21T01:24:58.556Z,71.96
2023-03-21T01:27:34.722Z,71.45
2023-03-21T01:30:17.380Z,71.65
2023-03-21T01:32:51.236Z,71.25
2023-03-21T01:35:22.876Z,71.31
2023-03-21T01:37:54.602Z,71.59
2023-03-21T01:40:27.058Z,71.84
2023-03-21T01:42:58.693Z,71.91
2023-03-21T01:46:08.150Z,72.29
2023-03-21T01:48:42.789Z,71.81
2023-03-21T01:51:14.401Z,72.08
2023-03-21T01:53:47.312Z,72.01
2023-03-21T01:56:28.063Z,72.34
2023-03-21T01:59:08.169Z,72.65
2023-03-21T02:01:42.313Z,73.14
2023-03-21T02:04:14.495Z,72.77
2023-03-21T02:06:54.595Z,72.88
2023-03-21T02:09:31.985Z,72.50
2023-03-21T02:12:04.196Z,72.65
2023-03-21T02:14:37.711Z,72.71
2023-03-21T02:17:15.420Z,72.71
2023-03-21T02:20:09.046Z,73.27
2023-03-21T02:22:51.270Z,72.94
2023-03-21T02:25:50.395Z,73.17
2023-03-21T02:28:27.516Z,72.94
2023-03-21T02:31:14.013Z,73.69
2023-03-21T02:34:16.725Z,73.26
2023-03-21T02:37:07.321Z,72.75
2023-03-21T02:40:11.697Z,73.59
2023-03-21T02:42:51.701Z,73.15
2023-03-21T02:45:49.777Z,73.49
2023-03-21T02:48:50.354Z,73.64
2023-03-21T02:51:25.944Z,73.48
2023-03-21T02:54:45.336Z,73.67
2023-03-21T02:57:07.628Z,73.29
2023-03-21T02:59:51.791Z,74.12
2023-03-21T03:02:27.786Z,73.83
2023-03-21T03:05:00.622Z,73.31
2023-03-21T03:07:42.692Z,73.79
2023-03-21T03:10:40.793Z,73.44
2023-03-21T03:13:32.324Z,73.34
2023-03-21T03:16:30.683Z,73.78
2023-03-21T03:19:07.033Z,73.80
2023-03-21T03:21:48.750Z,74.07
2023-03-21T03:24:26.033Z,74.24
2023-03-21T03:27:04.284Z,74.81
2023-03-21T03:29:40.017Z,75.58
2023-03-21T03:32:18.143Z,74.48
2023-03-21T03:34:56.358Z,74.11
2023-03-21T03:37:33.174Z,74.82
2023-03-21T03:40:26.146Z,74.14
2023-03-21T03:43:07.306Z,74.90
2023-03-21T03:45:47.983Z,74.56
2023-03-21T03:48:22.335Z,74.38
2023-03-21T03:51:21.120Z,74.31
2023-03-21T03:54:07.115Z,74.86
2023-03-21T03:56:39.627Z,75.04
2023-03-21T03:59:11.265Z,75.05
2023-03-21T04:01:42.818Z,75.11
2023-03-21T04:04:17.030Z,74.60
2023-03-21T04:06:51.712Z,75.16
2023-03-21T04:09:37.241Z,75.06
2023-03-21T04:12:14.468Z,74.85
2023-03-21T04:14:47.492Z,74.87
2023-03-21T04:17:19.274Z,74.69
2023-03-21T04:19:53.807Z,74.69
2023-03-21T04:22:29.246Z,74.95
2023-03-21T04:25:05.331Z,74.78
2023-03-21T04:27:37.255Z,74.44
2023-03-21T04:30:12.152Z,74.25
2023-03-21T04:32:43.698Z,74.81
2023-03-21T04:35:15.377Z,75.19
2023-03-21T04:37:47.012Z,74.42
2023-03-21T04:40:18.963Z,74.09
2023-03-21T04:42:50.864Z,74.42
2023-03-21T04:45:22.418Z,73.95
2023-03-21T04:47:53.926Z,74.18
2023-03-21T04:50:25.587Z,74.78
2023-03-21T04:52:57.112Z,74.91
2023-03-21T04:55:31.734Z,74.58
2023-03-21T04:58:04.388Z,74.72
2023-03-21T05:00:39.157Z,75.26
2023-03-21T05:03:10.708Z,75.02
2023-03-21T05:05:42.280Z,75.72
2023-03-21T05:08:14.173Z,75.43
2023-03-21T05:10:45.798Z,75.45
2023-03-21T05:13:17.307Z,75.34
2023-03-21T05:15:50.429Z,74.14
2023-03-21T05:18:24.974Z,74.38
2023-03-21T05:20:57.346Z,74.78
2023-03-21T05:23:31.579Z,74.90
2023-03-21T05:26:03.151Z,74.79
2023-03-21T05:28:36.798Z,74.03
2023-03-21T05:31:08.859Z,73.96
2023-03-21T05:33:40.461Z,74.48
2023-03-21T05:36:12.873Z,74.83
2023-03-21T05:38:46.325Z,74.38
2023-03-21T05:41:19.365Z,74.02
2023-03-21T05:43:50.967Z,74.31
2023-03-21T05:46:22.592Z,74.53
2023-03-21T05:48:54.249Z,73.96
2023-03-21T05:51:25.833Z,73.63
2023-03-21T05:53:57.390Z,73.88
2023-03-21T05:56:28.908Z,73.84
2023-03-21T05:59:00.665Z,73.58
2023-03-21T06:01:32.172Z,74.14
2023-03-21T06:04:03.949Z,74.08
2023-03-21T06:06:35.501Z,73.82
2023-03-21T06:09:07.156Z,73.65
2023-03-21T06:11:42.185Z,74.03
2023-03-21T06:14:14.010Z,74.11
2023-03-21T06:16:45.790Z,73.25
2023-03-21T06:19:17.473Z,72.48
2023-03-21T06:21:49.512Z,72.34
2023-03-21T06:24:21.733Z,72.16
2023-03-21T06:26:53.282Z,72.21
2023-03-21T06:29:24.884Z,72.41
2023-03-21T06:31:56.425Z,72.11
2023-03-21T06:34:28.225Z,72.15
2023-03-21T06:36:59.744Z,71.74
2023-03-21T06:39:33.072Z,71.86
2023-03-21T06:42:04.598Z,71.63
2023-03-21T06:44:36.295Z,71.72
2023-03-21T06:47:07.959Z,70.71
2023-03-21T06:49:41.019Z,71.11
2023-03-21T06:52:12.800Z,70.72
2023-03-21T06:54:44.368Z,71.23
2023-03-21T06:57:16.162Z,71.19
2023-03-21T06:59:47.734Z,70.61
2023-03-21T07:02:19.312Z,70.42
2023-03-21T07:04:51.011Z,69.86
2023-03-21T07:07:26.334Z,70.08
2023-03-21T07:09:57.905Z,69.79
2023-03-21T07:12:29.414Z,69.85
2023-03-21T07:15:02.101Z,69.39
2023-03-21T07:17:34.176Z,68.99
2023-03-21T07:20:08.305Z,68.72
2023-03-21T07:22:40.876Z,68.94
2023-03-21T07:25:12.596Z,69.27
2023-03-21T07:27:44.141Z,69.07
2023-03-21T07:30:15.969Z,68.14
2023-03-21T07:32:47.647Z,67.44
2023-03-21T07:35:19.749Z,67.53
2023-03-21T07:37:51.578Z,66.94
2023-03-21T07:40:23.230Z,67.15
2023-03-21T07:42:54.769Z,66.16
2023-03-21T07:45:27.384Z,67.27
2023-03-21T07:47:58.988Z,66.58
2023-03-21T07:50:30.934Z,67.23
2023-03-21T07:53:02.473Z,66.51
2023-03-21T07:55:35.084Z,66.11
2023-03-21T07:58:06.679Z,66.73
2023-03-21T08:00:38.326Z,64.79
2023-03-21T08:03:10.167Z,64.97
2023-03-21T08:05:42.233Z,64.52
2023-03-21T08:08:14.093Z,64.27
2023-03-21T08:10:45.936Z,64.24
2023-03-21T08:13:17.550Z,64.08
2023-03-21T08:15:49.358Z,63.08
2023-03-21T08:18:21.118Z,62.89
2023-03-21T08:20:57.115Z,62.49
2023-03-21T08:23:30.522Z,62.21
2023-03-21T08:26:02.659Z,62.98
2023-03-21T08:28:34.246Z,61.96
2023-03-21T08:31:10.633Z,61.87
2023-03-21T08:33:42.248Z,62.06
2023-03-21T08:36:13.831Z,61.73
2023-03-21T08:38:48.445Z,61.56
2023-03-21T08:41:22.144Z,60.82
2023-03-21T08:43:53.858Z,61.21
2023-03-21T08:46:25.768Z,60.16
2023-03-21T08:48:57.356Z,60.39
2023-03-21T08:51:28.988Z,59.51
2023-03-21T08:54:00.620Z,59.06
2023-03-21T08:56:32.521Z,58.85
2023-03-21T08:59:04.552Z,58.14
2023-03-21T09:01:37.192Z,59.57
2023-03-21T09:04:11.008Z,58.34
2023-03-21T09:06:45.776Z,57.32
2023-03-21T09:09:17.972Z,57.71
2023-03-21T09:11:51.512Z,57.86
2023-03-21T09:14:28.774Z,56.50
2023-03-21T09:17:01.358Z,57.33
2023-03-21T09:19:33.144Z,56.54
2023-03-21T09:22:04.723Z,55.55
2023-03-21T09:24:36.399Z,55.53
2023-03-21T09:27:08.165Z,55.19
2023-03-21T09:29:43.399Z,55.90
2023-03-21T09:32:15.352Z,56.04
2023-03-21T09:34:48.542Z,54.47
2023-03-21T09:37:21.208Z,55.25
2023-03-21T09:39:52.761Z,51.97
2023-03-21T09:42:39.469Z,53.38
2023-03-21T09:45:11.434Z,52.00
2023-03-21T09:47:52.628Z,53.20
2023-03-21T09:50:31.616Z,53.40
2023-03-21T09:53:27.171Z,52.62
2023-03-21T09:56:01.411Z,52.10
2023-03-21T09:58:40.105Z,51.79
2023-03-21T10:01:22.307Z,52.45
2023-03-21T10:03:56.643Z,52.62
2023-03-21T10:06:30.618Z,51.82
2023-03-21T10:09:06.677Z,52.21
2023-03-21T10:11:44.684Z,51.50
2023-03-21T10:14:23.636Z,51.49
2023-03-21T10:17:04.290Z,49.86
2023-03-21T10:19:36.304Z,50.73
2023-03-21T10:22:09.252Z,51.33
2023-03-21T10:24:41.169Z,51.96
2023-03-21T10:27:13.815Z,51.42
2023-03-21T10:29:46.454Z,52.58
2023-03-21T10:32:18.415Z,51.10
2023-03-21T10:37:35.418Z,50.47
2023-03-21T10:40:08.850Z,50.83
2023-03-21T10:42:40.414Z,49.63
2023-03-21T10:45:18.744Z,48.65
2023-03-21T10:47:51.611Z,48.59
2023-03-21T10:50:29.726Z,47.65
2023-03-21T10:53:01.681Z,47.58
2023-03-21T10:55:34.868Z,47.66
2023-03-21T10:58:10.909Z,48.10
2023-03-21T11:00:43.446Z,46.76
2023-03-21T11:03:31.431Z,45.72
2023-03-21T11:06:11.377Z,44.93
2023-03-21T11:08:53.878Z,44.91
2023-03-21T11:11:27.695Z,45.29
2023-03-21T11:14:06.735Z,45.06
2023-03-21T11:16:43.838Z,45.91
2023-03-21T11:19:26.653Z,45.76
2023-03-21T11:21:59.821Z,44.93
2023-03-21T11:24:33.877Z,43.53
2023-03-21T11:27:07.682Z,43.94
2023-03-21T11:29:44.233Z,44.08
2023-03-21T11:32:35.048Z,44.17
2023-03-21T11:35:19.771Z,44.30
2023-03-21T11:37:53.561Z,45.27
2023-03-21T11:40:26.394Z,46.06
2023-03-21T11:42:59.173Z,43.56
2023-03-21T11:45:33.101Z,43.80
2023-03-21T11:48:14.816Z,43.43
2023-03-21T11:50:50.185Z,44.26
2023-03-21T11:53:27.221Z,44.73
2023-03-21T11:56:13.965Z,43.92
2023-03-21T11:59:16.190Z,43.79
2023-03-21T12:02:21.526Z,44.20
2023-03-21T12:05:04.482Z,43.65
2023-03-21T12:07:39.037Z,44.06
2023-03-21T12:10:27.429Z,44.49
2023-03-21T12:13:20.714Z,43.44
2023-03-21T12:16:04.158Z,43.25
2023-03-21T12:18:54.023Z,43.44
2023-03-21T12:21:25.817Z,42.58
2023-03-21T12:24:09.015Z,42.27
2023-03-21T12:26:51.645Z,42.55
2023-03-21T12:29:41.890Z,39.97
2023-03-21T12:32:35.699Z,40.43
2023-03-21T12:35:46.013Z,39.49
2023-03-21T12:38:39.278Z,38.88
2023-03-21T12:41:31.622Z,38.90
2023-03-21T12:44:08.697Z,37.73
2023-03-21T12:46:49.013Z,37.19
2023-03-21T12:49:43.638Z,38.59
2023-03-21T12:52:30.671Z,37.82
2023-03-21T12:55:18.704Z,36.89
2023-03-21T12:58:22.961Z,37.06
2023-03-21T13:00:58.580Z,37.32
2023-03-21T13:03:52.257Z,36.92
2023-03-21T13:06:26.554Z,38.34
2023-03-21T13:09:11.229Z,37.61
2023-03-21T13:11:44.291Z,36.06
2023-03-21T13:14:23.833Z,36.08
2023-03-21T13:17:04.546Z,34.79
2023-03-21T13:19:46.736Z,34.58
2023-03-21T13:22:26.907Z,34.10
2023-03-21T13:25:06.884Z,33.74
2023-03-21T13:27:41.467Z,32.90
2023-03-21T13:30:30.655Z,33.61
2023-03-21T13:33:14.142Z,33.25
2023-03-21T13:35:46.067Z,30.94
2023-03-21T13:38:21.938Z,27.86
2023-03-21T13:41:08.907Z,26.38
2023-03-21T13:43:40.406Z,24.93
2023-03-21T13:46:52.300Z,23.53
2023-03-21T13:49:38.254Z,23.95
2023-03-21T13:52:09.788Z,22.08
2023-03-21T13:54:51.092Z,21.81
2023-03-21T13:57:38.784Z,21.97
2023-03-21T14:00:21.685Z,22.04
2023-03-21T14:03:13.975Z,21.36
2023-03-21T14:05:50.155Z,21.04
2023-03-21T14:08:34.767Z,21.02
2023-03-21T14:11:15.012Z,20.30
2023-03-21T14:13:51.187Z,20.09
2023-03-21T14:16:28.376Z,19.73
2023-03-21T14:19:06.176Z,19.98
2023-03-21T14:21:38.257Z,20.74
2023-03-21T14:24:14.202Z,20.01
2023-03-21T14:26:51.789Z,20.87
2023-03-21T14:29:31.837Z,22.07
2023-03-21T14:32:05.745Z,21.20
2023-03-21T14:34:37.681Z,23.41
2023-03-21T14:37:11.249Z,25.25
2023-03-21T14:39:42.826Z,26.87
2023-03-21T14:42:15.647Z,26.05
2023-03-21T14:44:55.412Z,24.60
2023-03-21T14:47:29.829Z,24.67
2023-03-21T14:50:01.500Z,27.46
2023-03-21T14:52:34.562Z,29.04
2023-03-21T14:55:16.425Z,31.30
2023-03-21T14:57:48.646Z,32.62
2023-03-21T15:00:27.694Z,33.54
2023-03-21T15:03:03.195Z,34.62
2023-03-21T15:05:37.485Z,35.36
2023-03-21T15:08:14.669Z,35.47
2023-03-21T15:11:12.475Z,35.98
2023-03-21T15:13:51.272Z,34.63
2023-03-21T15:16:23.528Z,35.47
2023-03-21T15:18:55.919Z,36.47
2023-03-21T15:21:31.580Z,36.53
2023-03-21T15:24:13.548Z,36.95
2023-03-21T15:26:47.666Z,37.94
2023-03-21T15:29:19.352Z,39.01
2023-03-21T15:31:51.027Z,38.09
2023-03-21T15:34:27.869Z,39.29
2023-03-21T15:37:06.899Z,38.70
2023-03-21T15:39:38.464Z,38.98
2023-03-21T15:42:29.851Z,39.62
2023-03-21T15:45:31.308Z,39.32
2023-03-21T15:48:09.080Z,39.65
2023-03-21T15:50:47.375Z,39.25
2023-03-21T15:53:20.238Z,40.09
2023-03-21T15:56:01.821Z,40.53
2023-03-21T15:58:41.896Z,41.20
2023-03-21T16:01:18.081Z,41.36
2023-03-21T16:04:02.804Z,41.45
2023-03-21T16:06:37.189Z,41.22
2023-03-21T16:09:08.723Z,41.53
2023-03-21T16:11:48.326Z,42.11
2023-03-21T16:14:21.028Z,42.34
2023-03-21T16:16:52.909Z,42.67
2023-03-21T16:19:24.911Z,43.84
2023-03-21T16:21:56.517Z,43.64
2023-03-21T16:24:28.022Z,43.86
2023-03-21T16:27:00.544Z,44.33
2023-03-21T16:29:32.045Z,44.37
2023-03-21T16:32:06.290Z,44.70
2023-03-21T16:34:37.889Z,45.30
2023-03-21T16:37:15.852Z,45.48
2023-03-21T16:39:47.751Z,45.63
2023-03-21T16:42:19.269Z,45.48
2023-03-21T16:44:50.918Z,45.41
2023-03-21T16:47:25.641Z,44.23
2023-03-21T16:49:57.273Z,44.49
2023-03-21T16:52:28.773Z,44.67
2023-03-21T16:55:00.324Z,45.22
2023-03-21T16:57:31.890Z,45.21
2023-03-21T17:00:07.411Z,45.23
2023-03-21T17:02:38.963Z,45.57
2023-03-21T17:05:11.647Z,46.23
2023-03-21T17:07:44.040Z,46.58
2023-03-21T17:10:29.356Z,46.99
2023-03-21T17:13:00.970Z,48.00
2023-03-21T17:15:32.554Z,48.16
2023-03-21T17:18:04.533Z,49.25
2023-03-21T17:20:38.266Z,48.40
2023-03-21T17:23:10.914Z,47.89
2023-03-21T17:25:42.488Z,48.10
2023-03-21T17:28:14.152Z,48.69
2023-03-21T17:33:41.819Z,48.84
2023-03-21T17:36:24.498Z,48.81
2023-03-21T17:38:56.479Z,49.11
2023-03-21T17:41:28.072Z,49.40
2023-03-21T17:43:59.604Z,51.16
2023-03-21T17:46:38.667Z,50.60
2023-03-21T17:49:13.342Z,50.83
2023-03-21T17:51:46.900Z,51.07
2023-03-21T17:54:18.577Z,52.14
2023-03-21T17:56:50.519Z,52.60
2023-03-21T17:59:22.540Z,52.41
2023-03-21T18:01:54.099Z,52.38
2023-03-21T18:04:27.070Z,52.66
2023-03-21T18:07:01.120Z,52.19
2023-03-21T18:09:33.452Z,53.71
2023-03-21T18:12:05.226Z,52.96
2023-03-21T18:14:40.548Z,53.84
2023-03-21T18:17:12.410Z,53.18
2023-03-21T18:19:45.125Z,53.75
2023-03-21T18:22:18.173Z,53.52
2023-03-21T18:24:49.932Z,53.45
2023-03-21T18:27:21.596Z,53.95
2023-03-21T18:30:25.804Z,54.30
2023-03-21T18:32:45.837Z,53.79
2023-03-21T18:35:22.441Z,54.45
2023-03-21T18:37:55.196Z,54.42
2023-03-21T18:40:27.569Z,54.76
2023-03-21T18:43:49.888Z,55.13
2023-03-21T18:45:53.028Z,55.69
2023-03-21T18:48:24.779Z,56.08
2023-03-21T18:50:56.778Z,55.13
2023-03-21T18:53:28.801Z,55.10
2023-03-21T18:56:00.779Z,55.63
2023-03-21T18:58:32.830Z,55.05
2023-03-21T19:01:05.184Z,55.23
2023-03-21T19:03:37.754Z,56.25
2023-03-21T19:06:11.694Z,55.93
2023-03-21T19:08:44.236Z,56.67
2023-03-21T19:11:19.171Z,57.31
2023-03-21T19:13:53.099Z,56.75
2023-03-21T19:16:31.525Z,57.57
2023-03-21T19:19:09.423Z,56.96
2023-03-21T19:21:41.326Z,57.28
2023-03-21T19:24:30.428Z,56.63
2023-03-21T19:27:02.012Z,57.55
2023-03-21T19:29:34.219Z,57.72
2023-03-21T19:32:05.866Z,58.03
2023-03-21T19:34:38.721Z,58.47
2023-03-21T19:37:10.921Z,58.27
2023-03-21T19:39:42.669Z,57.82
2023-03-21T19:42:17.213Z,58.31
2023-03-21T19:44:49.294Z,57.70
2023-03-21T19:47:20.946Z,57.99
2023-03-21T19:52:46.144Z,59.43
2023-03-21T19:55:18.113Z,58.97
2023-03-21T19:57:49.897Z,59.95
2023-03-21T20:00:21.669Z,59.60
2023-03-21T20:02:53.704Z,59.49
2023-03-21T20:05:25.800Z,59.87
2023-03-21T20:07:57.472Z,60.78
2023-03-21T20:10:29.936Z,60.94
2023-03-21T20:13:01.488Z,61.37
2023-03-21T20:15:44.766Z,60.67
2023-03-21T20:18:21.445Z,60.67
2023-03-21T20:20:53.407Z,61.60
2023-03-21T20:23:25.122Z,61.16
2023-03-21T20:25:56.789Z,61.45
2023-03-21T20:28:29.115Z,61.46
2023-03-21T20:31:02.015Z,61.83
2023-03-21T20:33:33.665Z,62.03
2023-03-21T20:36:37.682Z,62.01
2023-03-21T20:38:59.218Z,62.23
2023-03-21T20:41:30.982Z,62.23
2023-03-21T20:46:54.874Z,62.76
2023-03-21T20:49:26.804Z,63.06
2023-03-21T20:52:51.828Z,62.62
2023-03-21T20:54:51.906Z,62.47
2023-03-21T20:57:27.105Z,62.43
2023-03-21T20:59:58.873Z,63.05
2023-03-21T21:02:30.592Z,62.44
2023-03-21T21:05:24.856Z,63.01
2023-03-21T21:07:54.841Z,63.14
2023-03-21T21:10:28.816Z,63.38
2023-03-21T21:13:00.438Z,63.18
2023-03-21T21:15:33.513Z,63.34
2023-03-21T21:18:07.369Z,63.44
2023-03-21T21:20:40.134Z,63.32
2023-03-21T21:23:13.745Z,63.86
2023-03-21T21:25:45.341Z,63.40
2023-03-21T21:28:18.830Z,63.62
2023-03-21T21:30:55.800Z,63.53
2023-03-21T21:33:30.373Z,63.13
2023-03-21T21:36:01.864Z,63.57
2023-03-21T21:38:36.013Z,63.22
2023-03-21T21:41:09.073Z,63.26
2023-03-21T21:43:40.902Z,63.34
2023-03-21T21:46:13.294Z,64.29
2023-03-21T21:48:44.888Z,64.19
2023-03-21T21:51:25.960Z,64.01
2023-03-21T21:53:58.537Z,64.37
2023-03-21T21:56:32.653Z,64.11
2023-03-21T21:59:04.243Z,63.83
2023-03-21T22:01:38.553Z,63.57
2023-03-21T22:04:11.499Z,63.58
2023-03-21T22:06:43.267Z,63.04
2023-03-21T22:09:15.912Z,63.44
2023-03-21T22:11:47.695Z,63.65
2023-03-21T22:14:19.420Z,63.84
2023-03-21T22:16:50.945Z,63.68
2023-03-21T22:19:22.490Z,63.49
2023-03-21T22:21:58.038Z,63.61
2023-03-21T22:24:29.605Z,63.68
2023-03-21T22:27:01.259Z,63.17
2023-03-21T22:29:32.815Z,64.09
2023-03-21T22:32:04.488Z,63.74
2023-03-21T22:34:36.215Z,63.82
2023-03-21T22:37:07.728Z,63.61
2023-03-21T22:39:39.494Z,64.14
2023-03-21T22:42:11.074Z,63.95
2023-03-21T22:44:42.617Z,63.56
2023-03-21T22:47:14.141Z,64.26
2023-03-21T22:49:46.962Z,63.88
2023-03-21T22:52:18.904Z,64.34
2023-03-21T22:54:50.618Z,64.21
2023-03-21T22:57:22.225Z,64.43
2023-03-21T22:59:53.825Z,64.78
2023-03-21T23:02:25.601Z,64.32
2023-03-21T23:04:57.141Z,64.78
2023-03-21T23:07:28.610Z,64.29
2023-03-21T23:10:00.256Z,64.51
2023-03-21T23:12:32.241Z,65.05
2023-03-21T23:15:04.431Z,64.88
2023-03-21T23:17:36.205Z,65.29
2023-03-21T23:20:08.681Z,65.43
2023-03-21T23:22:40.593Z,65.32
2023-03-21T23:25:12.716Z,64.98
2023-03-21T23:27:44.919Z,65.37
2023-03-21T23:30:16.695Z,65.70
2023-03-21T23:32:48.266Z,65.13
2023-03-21T23:35:19.872Z,65.22
2023-03-21T23:37:52.507Z,65.45
2023-03-21T23:40:24.410Z,65.27
2023-03-21T23:42:56.077Z,65.26
2023-03-21T23:45:27.629Z,66.17
2023-03-21T23:47:59.188Z,66.53
2023-03-21T23:50:30.811Z,66.11
2023-03-21T23:53:02.490Z,66.41
2023-03-21T23:55:37.800Z,66.60
2023-03-21T23:58:09.344Z,66.69
